createdAt,value
2019-01-25T00:00:48.972Z,13.93
2019-01-25T00:01:55.035Z,13.68
2019-01-25T00:02:59.655Z,13.58
2019-01-25T00:04:04.508Z,13.83
2019-01-25T00:05:10.972Z,15.17
2019-01-25T00:06:17.133Z,14.73
2019-01-25T00:07:21.727Z,13.93
2019-01-25T00:08:26.253Z,14.47
2019-01-25T00:09:30.778Z,13.60
2019-01-25T00:10:36.874Z,12.90
2019-01-25T00:11:41.659Z,14.10
2019-01-25T00:12:46.148Z,14.17
2019-01-25T00:13:50.754Z,13.80
2019-01-25T00:14:55.329Z,14.75
2019-01-25T00:16:01.209Z,14.63
2019-01-25T00:17:05.816Z,14.28
2019-01-25T00:18:10.472Z,14.98
2019-01-25T00:19:15.003Z,14.15
2019-01-25T00:20:21.103Z,13.93
2019-01-25T00:21:25.739Z,15.55
2019-01-25T00:22:30.290Z,14.43
2019-01-25T00:23:34.927Z,14.90
2019-01-25T00:24:39.500Z,13.70
2019-01-25T00:25:44.043Z,13.50
2019-01-25T00:26:48.586Z,13.87
2019-01-25T00:27:53.097Z,13.90
2019-01-25T00:28:59.684Z,12.73
2019-01-25T00:30:09.826Z,12.47
2019-01-25T00:31:14.356Z,13.27
2019-01-25T00:32:18.922Z,14.33
2019-01-25T00:33:23.480Z,14.23
2019-01-25T00:34:28.005Z,13.75
2019-01-25T00:35:32.530Z,14.13
2019-01-25T00:36:37.072Z,13.60
2019-01-25T00:37:41.655Z,14.75
2019-01-25T00:38:46.215Z,15.30
2019-01-25T00:39:50.774Z,14.98
2019-01-25T00:40:55.333Z,14.73
2019-01-25T00:41:59.855Z,14.63
2019-01-25T00:43:04.685Z,14.90
2019-01-25T00:44:09.206Z,15.78
2019-01-25T00:45:14.766Z,14.57
2019-01-25T00:46:19.262Z,15.03
2019-01-25T00:47:23.771Z,14.23
2019-01-25T00:48:28.343Z,15.37
2019-01-25T00:49:33.011Z,14.77
2019-01-25T00:50:37.523Z,16.97
2019-01-25T00:51:42.163Z,16.70
2019-01-25T00:52:46.972Z,14.93
2019-01-25T00:53:51.595Z,14.63
2019-01-25T00:54:56.134Z,15.20
2019-01-25T00:56:02.329Z,15.13
2019-01-25T00:57:06.863Z,16.00
2019-01-25T00:58:11.398Z,15.45
2019-01-25T00:59:15.952Z,15.15
2019-01-25T01:00:24.288Z,18.63
2019-01-25T01:01:28.813Z,16.27
2019-01-25T01:02:33.382Z,16.60
2019-01-25T01:03:37.956Z,14.40
2019-01-25T01:04:42.504Z,15.77
2019-01-25T01:05:47.075Z,15.43
2019-01-25T01:06:52.849Z,15.47
2019-01-25T01:07:57.341Z,15.17
2019-01-25T01:09:01.841Z,15.27
2019-01-25T01:10:13.986Z,15.03
2019-01-25T01:11:15.500Z,14.15
2019-01-25T01:12:20.023Z,14.55
2019-01-25T01:13:24.623Z,15.20
2019-01-25T01:14:29.197Z,14.50
2019-01-25T01:15:33.996Z,16.10
2019-01-25T01:16:38.909Z,14.95
2019-01-25T01:17:43.591Z,15.08
2019-01-25T01:18:49.188Z,14.50
2019-01-25T01:19:54.308Z,15.80
2019-01-25T01:20:58.893Z,17.10
2019-01-25T01:22:03.510Z,17.67
2019-01-25T01:23:08.177Z,15.57
2019-01-25T01:24:12.712Z,14.37
2019-01-25T01:25:17.459Z,16.73
2019-01-25T01:26:21.979Z,17.47
2019-01-25T01:27:26.513Z,16.77
2019-01-25T01:28:31.077Z,16.27
2019-01-25T01:29:37.272Z,16.37
2019-01-25T01:30:43.073Z,15.20
2019-01-25T01:31:47.606Z,17.17
2019-01-25T01:32:52.504Z,15.28
2019-01-25T01:33:57.229Z,14.93
2019-01-25T01:35:03.317Z,15.63
2019-01-25T01:36:07.923Z,15.50
2019-01-25T01:37:14.076Z,15.30
2019-01-25T01:38:18.903Z,14.58
2019-01-25T01:39:23.456Z,14.38
2019-01-25T01:40:28.047Z,14.77
2019-01-25T01:41:32.567Z,13.75
2019-01-25T01:42:37.111Z,13.30
2019-01-25T01:43:41.759Z,15.30
2019-01-25T01:44:46.290Z,15.73
2019-01-25T01:45:50.866Z,17.37
2019-01-25T01:46:55.412Z,16.20
2019-01-25T01:47:59.954Z,16.52
2019-01-25T01:49:04.975Z,14.90
2019-01-25T01:50:12.423Z,16.80
2019-01-25T01:51:18.074Z,14.40
2019-01-25T01:52:22.569Z,15.03
2019-01-25T01:53:27.140Z,15.20
2019-01-25T01:54:31.677Z,14.68
2019-01-25T01:55:36.201Z,14.90
2019-01-25T01:56:40.759Z,15.30
2019-01-25T01:57:45.357Z,15.98
2019-01-25T01:58:50.067Z,15.53
2019-01-25T01:59:54.614Z,15.03
2019-01-25T02:00:59.182Z,16.37
2019-01-25T02:02:04.473Z,16.37
2019-01-25T02:03:09.031Z,15.20
2019-01-25T02:04:13.533Z,17.30
2019-01-25T02:05:18.404Z,16.43
2019-01-25T02:06:23.297Z,15.70
2019-01-25T02:07:27.795Z,15.20
2019-01-25T02:08:32.292Z,14.73
2019-01-25T02:09:36.813Z,14.90
2019-01-25T02:10:41.531Z,16.48
2019-01-25T02:11:46.068Z,16.80
2019-01-25T02:12:50.591Z,16.23
2019-01-25T02:13:56.225Z,15.48
2019-01-25T02:15:01.022Z,15.68
2019-01-25T02:16:06.057Z,15.90
2019-01-25T02:17:12.100Z,15.75
2019-01-25T02:18:16.609Z,15.28
2019-01-25T02:19:21.187Z,15.93
2019-01-25T02:20:29.314Z,15.30
2019-01-25T02:21:33.979Z,15.63
2019-01-25T02:22:39.859Z,14.90
2019-01-25T02:23:44.376Z,15.30
2019-01-25T02:24:49.537Z,16.00
2019-01-25T02:25:54.191Z,14.97
2019-01-25T02:26:58.700Z,15.87
2019-01-25T02:28:05.824Z,14.87
2019-01-25T02:29:10.380Z,15.90
2019-01-25T02:30:20.558Z,15.50
2019-01-25T02:31:25.532Z,15.83
2019-01-25T02:32:30.087Z,15.18
2019-01-25T02:33:34.654Z,15.10
2019-01-25T02:34:39.183Z,15.53
2019-01-25T02:35:43.784Z,15.53
2019-01-25T02:36:48.319Z,16.15
2019-01-25T02:37:52.940Z,16.42
2019-01-25T02:38:57.422Z,15.60
2019-01-25T02:40:01.920Z,16.23
2019-01-25T02:41:06.549Z,15.58
2019-01-25T02:42:11.039Z,15.77
2019-01-25T02:43:15.568Z,16.00
2019-01-25T02:44:20.069Z,15.17
2019-01-25T02:45:24.629Z,15.17
2019-01-25T02:46:29.155Z,15.72
2019-01-25T02:47:35.259Z,15.03
2019-01-25T02:48:39.804Z,16.63
2019-01-25T02:49:44.296Z,16.93
2019-01-25T02:50:48.785Z,16.67
2019-01-25T02:51:53.310Z,16.42
2019-01-25T02:53:03.779Z,16.37
2019-01-25T02:54:04.361Z,16.93
2019-01-25T02:55:10.488Z,16.10
2019-01-25T02:56:15.023Z,16.10
2019-01-25T02:57:21.459Z,16.85
2019-01-25T02:58:25.979Z,17.10
2019-01-25T02:59:30.528Z,16.45
2019-01-25T03:00:36.590Z,15.70
2019-01-25T03:01:41.177Z,15.97
2019-01-25T03:02:45.832Z,15.47
2019-01-25T03:03:50.429Z,15.53
2019-01-25T03:04:55.046Z,16.63
2019-01-25T03:05:59.527Z,16.53
2019-01-25T03:07:05.053Z,16.47
2019-01-25T03:08:09.553Z,16.23
2019-01-25T03:09:15.503Z,16.40
2019-01-25T03:10:28.630Z,15.83
2019-01-25T03:11:28.307Z,15.43
2019-01-25T03:12:34.484Z,17.67
2019-01-25T03:13:39.313Z,15.65
2019-01-25T03:14:43.875Z,15.20
2019-01-25T03:15:48.470Z,15.40
2019-01-25T03:16:53.787Z,14.70
2019-01-25T03:17:58.299Z,15.53
2019-01-25T03:19:04.087Z,14.57
2019-01-25T03:20:11.436Z,14.47
2019-01-25T03:21:16.012Z,13.48
2019-01-25T03:22:20.514Z,14.63
2019-01-25T03:23:25.050Z,18.75
2019-01-25T03:24:29.530Z,14.47
2019-01-25T03:25:34.248Z,15.43
2019-01-25T03:26:38.844Z,14.68
2019-01-25T03:27:43.339Z,13.73
2019-01-25T03:28:47.854Z,14.63
2019-01-25T03:29:52.379Z,13.60
2019-01-25T03:30:56.980Z,14.40
2019-01-25T03:32:01.513Z,14.03
2019-01-25T03:33:06.123Z,15.00
2019-01-25T03:34:10.735Z,14.50
2019-01-25T03:35:17.948Z,13.83
2019-01-25T03:36:22.444Z,12.77
2019-01-25T03:37:26.997Z,14.60
2019-01-25T03:38:31.530Z,13.47
2019-01-25T03:39:36.129Z,12.20
2019-01-25T03:40:40.632Z,11.93
2019-01-25T03:41:46.712Z,13.65
2019-01-25T03:42:51.384Z,13.15
2019-01-25T03:43:55.957Z,15.58
2019-01-25T03:45:00.463Z,14.30
2019-01-25T03:46:05.219Z,13.10
2019-01-25T03:47:09.703Z,14.80
2019-01-25T03:48:14.256Z,14.75
2019-01-25T03:49:18.810Z,13.65
2019-01-25T03:50:26.063Z,12.73
2019-01-25T03:51:30.660Z,12.37
2019-01-25T03:52:35.246Z,11.50
2019-01-25T03:53:39.771Z,12.70
2019-01-25T03:54:44.351Z,13.05
2019-01-25T03:55:48.953Z,12.82
2019-01-25T03:56:53.498Z,12.35
2019-01-25T03:57:58.050Z,11.43
2019-01-25T03:59:02.580Z,11.97
2019-01-25T04:00:12.850Z,13.00
2019-01-25T04:01:17.363Z,11.10
2019-01-25T04:02:21.891Z,11.00
2019-01-25T04:03:26.452Z,12.68
2019-01-25T04:04:30.973Z,11.48
2019-01-25T04:05:35.484Z,12.57
2019-01-25T04:06:39.992Z,12.43
2019-01-25T04:07:44.597Z,12.85
2019-01-25T04:08:49.189Z,16.02
2019-01-25T04:09:53.971Z,12.80
2019-01-25T04:11:03.378Z,12.13
2019-01-25T04:12:05.944Z,12.23
2019-01-25T04:13:10.632Z,11.57
2019-01-25T04:14:15.154Z,10.40
2019-01-25T04:15:22.180Z,13.80
2019-01-25T04:16:26.696Z,12.03
2019-01-25T04:17:31.213Z,13.00
2019-01-25T04:18:35.713Z,13.67
2019-01-25T04:19:40.252Z,11.43
2019-01-25T04:20:44.780Z,10.17
2019-01-25T04:21:49.327Z,10.88
2019-01-25T04:22:54.176Z,9.30
2019-01-25T04:24:00.998Z,10.57
2019-01-25T04:25:08.789Z,11.93
2019-01-25T04:26:13.924Z,10.55
2019-01-25T04:27:18.467Z,10.78
2019-01-25T04:28:22.987Z,11.33
2019-01-25T04:29:27.516Z,10.00
2019-01-25T04:30:32.958Z,11.55
2019-01-25T04:31:37.728Z,12.50
2019-01-25T04:32:42.285Z,12.65
2019-01-25T04:33:48.373Z,12.93
2019-01-25T04:34:52.849Z,11.37
2019-01-25T04:35:57.389Z,10.32
2019-01-25T04:37:01.883Z,11.00
2019-01-25T04:38:06.503Z,10.63
2019-01-25T04:39:11.074Z,10.23
2019-01-25T04:40:18.280Z,10.20
2019-01-25T04:41:23.066Z,9.43
2019-01-25T04:42:27.568Z,9.43
2019-01-25T04:43:32.120Z,10.00
2019-01-25T04:44:36.657Z,10.18
2019-01-25T04:45:41.161Z,9.73
2019-01-25T04:46:45.708Z,9.48
2019-01-25T04:47:50.694Z,9.70
2019-01-25T04:48:55.244Z,10.78
2019-01-25T04:49:59.758Z,9.25
2019-01-25T04:51:08.462Z,10.00
2019-01-25T04:52:13.202Z,9.20
2019-01-25T04:53:17.706Z,9.13
2019-01-25T04:54:22.254Z,10.83
2019-01-25T04:55:28.940Z,10.60
2019-01-25T04:56:36.849Z,8.97
2019-01-25T04:57:41.335Z,10.30
2019-01-25T04:58:45.851Z,8.60
2019-01-25T04:59:52.022Z,9.90
2019-01-25T05:00:59.254Z,9.00
2019-01-25T05:02:04.002Z,11.23
2019-01-25T05:03:08.591Z,12.53
2019-01-25T05:04:13.135Z,9.88
2019-01-25T05:05:17.732Z,9.58
2019-01-25T05:06:22.271Z,9.75
2019-01-25T05:07:27.150Z,8.60
2019-01-25T05:08:31.687Z,9.05
2019-01-25T05:09:39.274Z,9.48
2019-01-25T05:10:43.940Z,8.25
2019-01-25T05:11:48.425Z,8.27
2019-01-25T05:12:53.576Z,9.90
2019-01-25T05:13:58.406Z,10.20
2019-01-25T05:15:02.915Z,8.80
2019-01-25T05:16:10.493Z,10.10
2019-01-25T05:17:15.094Z,10.03
2019-01-25T05:18:19.608Z,9.40
2019-01-25T05:19:24.163Z,9.43
2019-01-25T05:20:29.357Z,9.00
2019-01-25T05:21:33.867Z,9.53
2019-01-25T05:22:38.353Z,9.43
2019-01-25T05:23:42.947Z,9.70
2019-01-25T05:24:47.463Z,11.27
2019-01-25T05:25:52.074Z,11.75
2019-01-25T05:26:58.545Z,11.65
2019-01-25T05:28:09.839Z,9.23
2019-01-25T05:29:14.478Z,9.43
2019-01-25T05:30:19.013Z,9.27
2019-01-25T05:31:23.610Z,9.00
2019-01-25T05:32:28.400Z,9.20
2019-01-25T05:33:32.968Z,9.97
2019-01-25T05:34:37.473Z,9.90
2019-01-25T05:35:43.310Z,9.60
2019-01-25T05:36:49.191Z,9.53
2019-01-25T05:37:53.663Z,9.20
2019-01-25T05:38:59.448Z,10.82
2019-01-25T05:40:07.219Z,9.13
2019-01-25T05:41:11.752Z,8.33
2019-01-25T05:42:16.367Z,9.35
2019-01-25T05:43:22.131Z,9.45
2019-01-25T05:44:27.236Z,9.63
2019-01-25T05:45:31.849Z,9.38
2019-01-25T05:46:36.951Z,9.18
2019-01-25T05:47:41.486Z,9.00
2019-01-25T05:48:46.218Z,9.87
2019-01-25T05:49:50.722Z,11.17
2019-01-25T05:50:58.315Z,10.20
2019-01-25T05:52:03.664Z,9.90
2019-01-25T05:53:08.157Z,8.40
2019-01-25T05:54:12.798Z,10.30
2019-01-25T05:55:21.548Z,9.60
2019-01-25T05:56:26.036Z,10.73
2019-01-25T05:57:30.544Z,9.53
2019-01-25T05:58:35.107Z,9.67
2019-01-25T05:59:39.636Z,9.60
2019-01-25T06:00:45.441Z,9.15
2019-01-25T06:01:49.992Z,8.83
2019-01-25T06:02:54.501Z,11.15
2019-01-25T06:03:59.051Z,9.70
2019-01-25T06:05:04.373Z,8.65
2019-01-25T06:06:08.997Z,8.80
2019-01-25T06:07:13.499Z,8.93
2019-01-25T06:08:33.894Z,7.90
2019-01-25T06:09:38.724Z,9.18
2019-01-25T06:10:43.327Z,8.57
2019-01-25T06:11:47.840Z,8.65
2019-01-25T06:12:55.365Z,10.40
2019-01-25T06:13:59.860Z,9.13
2019-01-25T06:15:07.639Z,8.63
2019-01-25T06:16:12.433Z,8.60
2019-01-25T06:17:16.962Z,8.40
2019-01-25T06:18:21.507Z,9.60
2019-01-25T06:19:26.132Z,9.58
2019-01-25T06:20:32.019Z,8.77
2019-01-25T06:21:36.591Z,8.80
2019-01-25T06:22:41.130Z,8.30
2019-01-25T06:23:45.666Z,9.03
2019-01-25T06:24:50.326Z,8.37
2019-01-25T06:25:57.400Z,7.93
2019-01-25T06:27:04.049Z,9.07
2019-01-25T06:28:08.612Z,8.23
2019-01-25T06:29:14.652Z,9.90
2019-01-25T06:30:19.259Z,8.58
2019-01-25T06:31:23.826Z,9.10
2019-01-25T06:32:28.401Z,8.47
2019-01-25T06:33:32.894Z,8.50
2019-01-25T06:34:37.519Z,8.55
2019-01-25T06:35:42.042Z,8.40
2019-01-25T06:36:46.753Z,7.65
2019-01-25T06:37:51.369Z,9.40
2019-01-25T06:38:55.910Z,8.18
2019-01-25T06:40:00.446Z,9.23
2019-01-25T06:41:05.164Z,9.40
2019-01-25T06:42:09.753Z,8.93
2019-01-25T06:43:14.252Z,8.70
2019-01-25T06:44:18.794Z,8.35
2019-01-25T06:45:23.380Z,8.33
2019-01-25T06:46:27.947Z,9.57
2019-01-25T06:47:32.474Z,9.20
2019-01-25T06:48:36.990Z,8.85
2019-01-25T06:49:41.824Z,9.03
2019-01-25T06:50:46.349Z,8.70
2019-01-25T06:51:50.857Z,8.67
2019-01-25T06:52:56.891Z,9.90
2019-01-25T06:54:01.393Z,9.47
2019-01-25T06:55:07.240Z,8.23
2019-01-25T06:56:11.796Z,8.30
2019-01-25T06:57:17.972Z,9.93
2019-01-25T06:58:30.000Z,9.35
2019-01-25T06:59:35.098Z,8.80
2019-01-25T07:00:48.054Z,10.43
2019-01-25T07:01:54.239Z,8.30
2019-01-25T07:02:58.773Z,10.33
2019-01-25T07:04:03.321Z,9.55
2019-01-25T07:05:09.486Z,10.60
2019-01-25T07:06:14.369Z,10.50
2019-01-25T07:07:20.519Z,10.27
2019-01-25T07:08:25.137Z,11.53
2019-01-25T07:09:29.761Z,8.60
2019-01-25T07:10:34.672Z,9.80
2019-01-25T07:11:42.325Z,9.40
2019-01-25T07:12:46.568Z,8.50
2019-01-25T07:13:52.445Z,8.78
2019-01-25T07:14:57.009Z,9.68
2019-01-25T07:16:01.641Z,9.43
2019-01-25T07:17:06.316Z,9.13
2019-01-25T07:18:10.857Z,8.45
2019-01-25T07:19:15.411Z,8.97
2019-01-25T07:20:19.923Z,8.23
2019-01-25T07:21:24.471Z,8.73
2019-01-25T07:22:29.178Z,8.77
2019-01-25T07:23:33.696Z,9.13
2019-01-25T07:24:38.194Z,8.83
2019-01-25T07:25:43.916Z,8.17
2019-01-25T07:26:48.728Z,10.00
2019-01-25T07:27:53.832Z,9.70
2019-01-25T07:28:59.965Z,9.33
2019-01-25T07:30:07.825Z,9.53
2019-01-25T07:31:12.560Z,10.93
2019-01-25T07:32:17.398Z,8.35
2019-01-25T07:33:22.143Z,8.85
2019-01-25T07:34:28.189Z,8.65
2019-01-25T07:35:33.693Z,10.83
2019-01-25T07:36:38.237Z,10.38
2019-01-25T07:37:43.009Z,10.47
2019-01-25T07:38:47.712Z,10.45
2019-01-25T07:39:52.521Z,8.63
2019-01-25T07:40:57.087Z,9.40
2019-01-25T07:42:02.314Z,9.03
2019-01-25T07:43:07.143Z,9.27
2019-01-25T07:44:11.720Z,8.70
2019-01-25T07:45:16.465Z,9.85
2019-01-25T07:46:20.999Z,9.00
2019-01-25T07:47:25.822Z,8.90
2019-01-25T07:48:30.508Z,9.13
2019-01-25T07:49:36.346Z,9.65
2019-01-25T07:50:40.861Z,9.43
2019-01-25T07:51:45.477Z,12.80
2019-01-25T07:52:51.651Z,10.30
2019-01-25T07:53:56.197Z,10.05
2019-01-25T07:55:00.949Z,9.70
2019-01-25T07:56:05.723Z,9.23
2019-01-25T07:57:10.233Z,9.53
2019-01-25T07:58:14.936Z,9.08
2019-01-25T07:59:19.526Z,8.90
2019-01-25T08:00:24.420Z,10.37
2019-01-25T08:01:28.993Z,8.60
2019-01-25T08:02:33.580Z,8.58
2019-01-25T08:03:38.158Z,9.37
2019-01-25T08:04:42.700Z,9.80
2019-01-25T08:05:49.590Z,10.68
2019-01-25T08:06:54.169Z,10.27
2019-01-25T08:07:58.787Z,9.83
2019-01-25T08:09:05.189Z,9.10
2019-01-25T08:10:15.830Z,9.53
2019-01-25T08:11:20.515Z,8.80
2019-01-25T08:12:25.098Z,9.55
2019-01-25T08:13:29.787Z,9.15
2019-01-25T08:14:34.343Z,10.67
2019-01-25T08:15:38.863Z,11.07
2019-01-25T08:16:43.382Z,10.03
2019-01-25T08:17:48.115Z,9.93
2019-01-25T08:18:52.714Z,9.60
2019-01-25T08:19:59.619Z,11.30
2019-01-25T08:21:04.324Z,9.97
2019-01-25T08:22:08.869Z,9.85
2019-01-25T08:23:13.429Z,11.90
2019-01-25T08:24:18.095Z,11.07
2019-01-25T08:25:22.625Z,10.73
2019-01-25T08:26:27.137Z,10.70
2019-01-25T08:27:31.668Z,9.93
2019-01-25T08:28:36.329Z,9.63
2019-01-25T08:29:42.179Z,9.20
2019-01-25T08:30:47.254Z,9.80
2019-01-25T08:31:51.879Z,9.75
2019-01-25T08:32:56.641Z,10.38
2019-01-25T08:34:01.347Z,8.60
2019-01-25T08:35:09.840Z,10.23
2019-01-25T08:36:14.431Z,12.15
2019-01-25T08:37:20.622Z,9.90
2019-01-25T08:38:25.250Z,10.15
2019-01-25T08:39:29.896Z,9.78
2019-01-25T08:40:34.535Z,10.93
2019-01-25T08:41:39.120Z,9.83
2019-01-25T08:42:43.940Z,10.53
2019-01-25T08:43:48.479Z,11.07
2019-01-25T08:44:53.723Z,10.30
2019-01-25T08:45:59.962Z,10.20
2019-01-25T08:47:04.748Z,10.83
2019-01-25T08:48:10.785Z,9.40
2019-01-25T08:49:15.684Z,9.18
2019-01-25T08:50:28.985Z,8.80
2019-01-25T08:51:35.197Z,8.90
2019-01-25T08:52:39.921Z,9.57
2019-01-25T08:53:44.557Z,8.87
2019-01-25T08:54:49.135Z,9.47
2019-01-25T08:55:53.765Z,9.63
2019-01-25T08:56:58.348Z,9.67
2019-01-25T08:58:03.235Z,9.28
2019-01-25T08:59:07.845Z,10.13
2019-01-25T09:00:21.885Z,10.15
2019-01-25T09:01:26.441Z,8.70
2019-01-25T09:02:31.251Z,10.33
2019-01-25T09:03:35.870Z,11.53
2019-01-25T09:04:40.405Z,11.63
2019-01-25T09:05:45.076Z,10.68
2019-01-25T09:06:49.811Z,10.28
2019-01-25T09:07:54.507Z,8.88
2019-01-25T09:08:59.036Z,9.40
2019-01-25T09:10:04.785Z,10.03
2019-01-25T09:11:09.353Z,9.80
2019-01-25T09:12:13.829Z,11.03
2019-01-25T09:13:18.553Z,10.60
2019-01-25T09:14:23.065Z,10.53
2019-01-25T09:15:32.877Z,11.87
2019-01-25T09:16:38.319Z,11.63
2019-01-25T09:17:43.084Z,11.50
2019-01-25T09:18:48.402Z,11.27
2019-01-25T09:19:52.979Z,9.83
2019-01-25T09:20:57.603Z,10.75
2019-01-25T09:22:02.155Z,11.15
2019-01-25T09:23:06.842Z,10.38
2019-01-25T09:24:11.464Z,10.28
2019-01-25T09:25:16.356Z,11.30
2019-01-25T09:26:21.004Z,12.53
2019-01-25T09:27:25.665Z,10.72
2019-01-25T09:28:30.613Z,11.47
2019-01-25T09:29:35.405Z,10.03
2019-01-25T09:30:39.972Z,9.57
2019-01-25T09:31:44.507Z,10.18
2019-01-25T09:32:49.079Z,9.90
2019-01-25T09:33:54.617Z,11.33
2019-01-25T09:34:59.389Z,10.70
2019-01-25T09:36:04.364Z,10.17
2019-01-25T09:37:09.129Z,9.80
2019-01-25T09:38:13.699Z,10.53
2019-01-25T09:39:18.394Z,10.97
2019-01-25T09:40:24.972Z,10.83
2019-01-25T09:41:29.575Z,9.53
2019-01-25T09:42:34.220Z,10.90
2019-01-25T09:43:38.759Z,10.58
2019-01-25T09:44:43.379Z,10.55
2019-01-25T09:45:49.351Z,10.82
2019-01-25T09:46:54.449Z,10.63
2019-01-25T09:47:58.927Z,10.80
2019-01-25T09:49:03.510Z,10.70
2019-01-25T09:50:11.469Z,10.33
2019-01-25T09:51:16.062Z,10.90
2019-01-25T09:52:20.875Z,10.33
2019-01-25T09:53:25.422Z,11.17
2019-01-25T09:54:29.945Z,10.23
2019-01-25T09:55:34.507Z,10.80
2019-01-25T09:56:39.078Z,10.43
2019-01-25T09:57:43.741Z,10.30
2019-01-25T09:58:48.353Z,11.08
2019-01-25T09:59:53.025Z,13.03
2019-01-25T10:01:00.761Z,13.18
2019-01-25T10:02:05.425Z,14.60
2019-01-25T10:03:10.069Z,14.53
2019-01-25T10:04:14.667Z,13.40
2019-01-25T10:05:19.230Z,12.75
2019-01-25T10:06:23.787Z,12.55
2019-01-25T10:07:28.471Z,12.65
2019-01-25T10:08:33.223Z,11.85
2019-01-25T10:09:37.854Z,11.77
2019-01-25T10:10:42.447Z,12.83
2019-01-25T10:11:47.093Z,11.07
2019-01-25T10:12:53.400Z,12.60
2019-01-25T10:13:57.943Z,11.60
2019-01-25T10:15:02.515Z,11.27
2019-01-25T10:16:07.408Z,11.37
2019-01-25T10:17:11.994Z,10.30
2019-01-25T10:18:16.524Z,11.00
2019-01-25T10:19:21.145Z,10.37
2019-01-25T10:20:25.821Z,11.80
2019-01-25T10:21:32.491Z,11.57
2019-01-25T10:22:38.151Z,12.35
2019-01-25T10:23:42.815Z,11.93
2019-01-25T10:24:47.404Z,11.83
2019-01-25T10:25:51.939Z,11.93
2019-01-25T10:26:56.850Z,11.53
2019-01-25T10:28:01.721Z,14.40
2019-01-25T10:29:06.407Z,14.43
2019-01-25T10:30:17.370Z,14.97
2019-01-25T10:31:21.895Z,12.80
2019-01-25T10:32:26.458Z,12.85
2019-01-25T10:33:31.064Z,12.40
2019-01-25T10:34:37.342Z,11.17
2019-01-25T10:35:41.955Z,13.83
2019-01-25T10:36:46.482Z,13.38
2019-01-25T10:37:51.983Z,14.17
2019-01-25T10:38:56.591Z,11.38
2019-01-25T10:40:01.214Z,12.00
2019-01-25T10:41:05.794Z,14.93
2019-01-25T10:42:10.332Z,13.65
2019-01-25T10:43:14.899Z,13.90
2019-01-25T10:44:19.461Z,12.68
2019-01-25T10:45:39.020Z,12.58
2019-01-25T10:46:43.577Z,10.72
2019-01-25T10:47:48.150Z,11.97
2019-01-25T10:48:52.655Z,11.73
2019-01-25T10:49:59.176Z,12.78
2019-01-25T10:51:03.814Z,12.40
2019-01-25T10:52:09.121Z,12.30
2019-01-25T10:53:13.868Z,12.37
2019-01-25T10:54:18.457Z,13.75
2019-01-25T10:55:23.516Z,14.83
2019-01-25T10:56:28.105Z,13.80
2019-01-25T10:57:32.901Z,11.85
2019-01-25T10:58:37.451Z,12.07
2019-01-25T10:59:42.044Z,12.40
2019-01-25T11:00:46.593Z,13.18
2019-01-25T11:01:51.204Z,13.20
2019-01-25T11:02:58.378Z,13.00
2019-01-25T11:04:02.092Z,12.60
2019-01-25T11:05:10.151Z,12.47
2019-01-25T11:06:14.677Z,14.20
2019-01-25T11:07:19.175Z,14.23
2019-01-25T11:08:23.719Z,14.68
2019-01-25T11:09:28.277Z,12.87
2019-01-25T11:10:32.967Z,14.00
2019-01-25T11:11:37.538Z,15.37
2019-01-25T11:12:43.145Z,13.32
2019-01-25T11:13:48.224Z,13.05
2019-01-25T11:14:52.874Z,12.80
2019-01-25T11:15:57.430Z,15.32
2019-01-25T11:17:01.955Z,12.37
2019-01-25T11:18:06.659Z,12.82
2019-01-25T11:19:11.177Z,13.08
2019-01-25T11:20:18.875Z,13.83
2019-01-25T11:21:23.379Z,13.77
2019-01-25T11:22:27.928Z,16.70
2019-01-25T11:23:32.553Z,14.87
2019-01-25T11:24:37.623Z,14.87
2019-01-25T11:25:42.667Z,13.60
2019-01-25T11:26:47.264Z,15.65
2019-01-25T11:27:51.833Z,15.17
2019-01-25T11:28:56.360Z,13.73
2019-01-25T11:30:01.226Z,13.43
2019-01-25T11:31:06.547Z,13.87
2019-01-25T11:32:11.206Z,12.23
2019-01-25T11:33:15.807Z,12.37
2019-01-25T11:34:20.427Z,12.83
2019-01-25T11:35:25.109Z,12.07
2019-01-25T11:36:29.819Z,13.30
2019-01-25T11:37:34.375Z,12.18
2019-01-25T11:38:38.906Z,12.25
2019-01-25T11:39:43.503Z,12.47
2019-01-25T11:40:48.668Z,12.07
2019-01-25T11:41:53.197Z,11.40
2019-01-25T11:42:57.794Z,12.93
2019-01-25T11:44:02.542Z,12.23
2019-01-25T11:45:10.879Z,12.03
2019-01-25T11:46:15.498Z,11.15
2019-01-25T11:47:20.205Z,11.27
2019-01-25T11:48:24.705Z,11.37
2019-01-25T11:49:29.540Z,11.97
2019-01-25T11:50:34.123Z,10.80
2019-01-25T11:51:39.429Z,12.00
2019-01-25T11:52:44.002Z,12.30
2019-01-25T11:53:48.668Z,12.67
2019-01-25T11:54:54.354Z,12.43
2019-01-25T11:55:59.046Z,13.08
2019-01-25T11:57:03.661Z,12.00
2019-01-25T11:58:08.350Z,13.58
2019-01-25T11:59:12.951Z,12.68
2019-01-25T12:00:20.850Z,12.18
2019-01-25T12:01:25.482Z,14.25
2019-01-25T12:02:30.085Z,12.30
2019-01-25T12:03:34.723Z,13.60
2019-01-25T12:04:39.242Z,13.77
2019-01-25T12:05:43.916Z,12.95
2019-01-25T12:06:48.472Z,12.53
2019-01-25T12:07:55.399Z,12.13
2019-01-25T12:08:59.985Z,13.00
2019-01-25T12:10:10.741Z,13.70
2019-01-25T12:11:17.265Z,11.43
2019-01-25T12:12:21.594Z,12.25
2019-01-25T12:13:26.179Z,10.78
2019-01-25T12:14:30.917Z,12.82
2019-01-25T12:15:36.842Z,12.25
2019-01-25T12:16:41.392Z,12.75
2019-01-25T12:17:46.561Z,11.30
2019-01-25T12:18:51.395Z,11.60
2019-01-25T12:19:55.941Z,10.45
2019-01-25T12:21:00.527Z,11.57
2019-01-25T12:22:05.206Z,10.73
2019-01-25T12:23:09.779Z,10.30
2019-01-25T12:24:14.380Z,10.53
2019-01-25T12:25:18.924Z,11.50
2019-01-25T12:26:23.454Z,13.23
2019-01-25T12:27:28.030Z,11.77
2019-01-25T12:28:32.588Z,10.93
2019-01-25T12:29:37.191Z,10.85
2019-01-25T12:30:41.767Z,11.10
2019-01-25T12:31:46.308Z,10.40
2019-01-25T12:32:50.982Z,11.18
2019-01-25T12:33:55.587Z,9.88
2019-01-25T12:35:01.661Z,10.00
2019-01-25T12:36:06.802Z,10.32
2019-01-25T12:37:11.341Z,11.12
2019-01-25T12:38:15.956Z,10.10
2019-01-25T12:39:20.948Z,11.20
2019-01-25T12:40:25.470Z,11.18
2019-01-25T12:41:29.989Z,10.47
2019-01-25T12:42:36.560Z,9.03
2019-01-25T12:43:41.159Z,9.67
2019-01-25T12:44:45.780Z,12.43
2019-01-25T12:45:50.414Z,11.33
2019-01-25T12:46:54.961Z,10.63
2019-01-25T12:47:59.509Z,10.50
2019-01-25T12:49:05.639Z,9.53
2019-01-25T12:50:16.316Z,10.80
2019-01-25T12:51:21.030Z,10.40
2019-01-25T12:52:25.612Z,10.80
2019-01-25T12:53:31.004Z,10.32
2019-01-25T12:54:35.557Z,11.15
2019-01-25T12:55:40.163Z,10.25
2019-01-25T12:56:46.323Z,10.83
2019-01-25T12:57:50.861Z,10.83
2019-01-25T12:58:55.440Z,9.90
2019-01-25T13:00:00.216Z,9.50
2019-01-25T13:01:06.209Z,9.33
2019-01-25T13:02:11.156Z,10.45
2019-01-25T13:03:15.660Z,10.07
2019-01-25T13:04:20.258Z,10.60
2019-01-25T13:05:24.861Z,10.47
2019-01-25T13:06:29.374Z,10.30
2019-01-25T13:07:33.892Z,10.03
2019-01-25T13:08:38.413Z,9.00
2019-01-25T13:09:44.492Z,9.83
2019-01-25T13:10:49.141Z,9.78
2019-01-25T13:11:53.670Z,9.78
2019-01-25T13:12:58.290Z,9.78
2019-01-25T13:14:02.818Z,9.93
2019-01-25T13:15:09.801Z,9.70
2019-01-25T13:16:15.933Z,9.67
2019-01-25T13:17:20.508Z,10.72
2019-01-25T13:18:25.011Z,9.40
2019-01-25T13:19:30.851Z,11.37
2019-01-25T13:20:39.498Z,11.67
2019-01-25T13:21:42.168Z,10.13
2019-01-25T13:22:46.713Z,10.00
2019-01-25T13:23:51.221Z,9.83
2019-01-25T13:24:55.829Z,9.90
2019-01-25T13:26:00.527Z,10.53
2019-01-25T13:27:06.897Z,9.47
2019-01-25T13:28:11.475Z,9.60
2019-01-25T13:29:16.062Z,10.27
2019-01-25T13:30:25.776Z,9.00
2019-01-25T13:31:30.728Z,10.50
2019-01-25T13:32:35.847Z,9.90
2019-01-25T13:33:40.546Z,9.88
2019-01-25T13:34:45.046Z,10.93
2019-01-25T13:35:49.899Z,9.93
2019-01-25T13:36:57.173Z,9.20
2019-01-25T13:38:00.761Z,9.53
2019-01-25T13:39:07.280Z,9.97
2019-01-25T13:40:14.477Z,10.13
2019-01-25T13:41:18.985Z,10.07
2019-01-25T13:42:23.493Z,9.63
2019-01-25T13:43:28.002Z,9.70
2019-01-25T13:44:32.505Z,11.13
2019-01-25T13:45:37.099Z,10.43
2019-01-25T13:46:41.647Z,10.03
2019-01-25T13:47:47.098Z,9.70
2019-01-25T13:48:51.775Z,9.90
2019-01-25T13:49:56.323Z,9.10
2019-01-25T13:51:00.933Z,10.43
2019-01-25T13:52:05.481Z,11.97
2019-01-25T13:53:10.026Z,10.15
2019-01-25T13:54:14.993Z,9.40
2019-01-25T13:55:20.346Z,10.00
2019-01-25T13:56:25.038Z,9.60
2019-01-25T13:57:29.548Z,9.27
2019-01-25T13:58:34.211Z,11.97
2019-01-25T13:59:38.922Z,9.35
2019-01-25T14:00:43.488Z,8.85
2019-01-25T14:01:47.993Z,8.80
2019-01-25T14:02:52.492Z,9.57
2019-01-25T14:03:57.237Z,9.23
2019-01-25T14:05:01.809Z,9.60
2019-01-25T14:06:06.476Z,10.33
2019-01-25T14:07:13.674Z,9.47